Time;durP1;ratioP1;P1;durP2;ratioP2;P2;SDS_P1;SDS_P2;PMS_P1;PMS_P2;Temp;Humidity;BMP_temperature;BMP_pressure;BME280_temperature;BME280_humidity;BME280_pressure;Samples;Min_cycle;Max_cycle;Signal;HPM_P1;HPM_P2
2023/05/09 00:02:16;;;;;;;9.77;8.77;;;22.90;65.20;;;;;;5065711;28;20198;-45
2023/05/09 00:04:47;;;;;;;9.73;8.57;;;22.90;65.20;;;;;;5068428;28;20279;-45
2023/05/09 00:07:21;;;;;;;10.60;8.83;;;22.90;65.20;;;;;;5033428;28;20241;-44
2023/05/09 00:09:54;;;;;;;9.30;8.23;;;22.90;65.10;;;;;;5050489;28;20284;-44
2023/05/09 00:12:30;;;;;;;9.03;7.93;;;22.90;65.10;;;;;;5060096;28;20211;-45
2023/05/09 00:14:59;;;;;;;10.60;8.97;;;22.90;65.20;;;;;;5033074;28;20197;-44
2023/05/09 00:17:27;;;;;;;10.63;8.63;;;22.90;65.10;;;;;;5067967;28;20248;-45
2023/05/09 00:19:56;;;;;;;10.53;8.63;;;22.90;65.10;;;;;;5065752;28;20186;-45
2023/05/09 00:22:26;;;;;;;9.17;8.27;;;22.80;65.00;;;;;;5066192;28;20241;-44
2023/05/09 00:24:59;;;;;;;9.87;8.87;;;22.80;65.00;;;;;;5054225;28;20209;-45
2023/05/09 00:27:32;;;;;;;8.77;7.97;;;22.80;65.00;;;;;;5068509;28;20214;-45
2023/05/09 00:30:06;;;;;;;10.00;9.00;;;22.80;65.00;;;;;;5068626;28;20189;-44
2023/05/09 00:32:39;;;;;;;9.83;8.83;;;22.80;65.00;;;;;;5059060;28;20189;-44
2023/05/09 00:35:13;;;;;;;9.20;8.30;;;22.80;65.00;;;;;;5045685;28;20218;-44
2023/05/09 00:37:43;;;;;;;9.33;8.23;;;22.80;65.00;;;;;;5056414;28;20201;-45
2023/05/09 00:40:15;;;;;;;8.80;7.90;;;22.80;65.00;;;;;;5066328;28;20764;-44
2023/05/09 00:42:46;;;;;;;10.33;9.27;;;22.80;65.00;;;;;;5042478;28;20193;-45
2023/05/09 00:45:18;;;;;;;9.40;8.40;;;22.80;65.00;;;;;;5067565;28;20216;-45
2023/05/09 00:47:47;;;;;;;10.30;8.50;;;22.80;64.90;;;;;;5078567;28;20234;-44
2023/05/09 00:50:19;;;;;;;9.30;8.40;;;22.80;64.90;;;;;;5067555;28;20204;-45
2023/05/09 00:52:52;;;;;;;9.80;8.80;;;22.80;64.90;;;;;;5066322;28;20192;-44
2023/05/09 00:55:36;;;;;;;9.20;8.30;;;22.80;64.90;;;;;;5069473;28;20194;-44
2023/05/09 00:58:10;;;;;;;9.77;8.63;;;22.80;64.90;;;;;;5065884;28;20287;-45
2023/05/09 01:00:42;;;;;;;9.77;8.77;;;22.70;64.90;;;;;;5085628;28;20212;-45
2023/05/09 01:03:24;;;;;;;9.30;8.40;;;22.70;64.80;;;;;;5072094;28;20224;-44
2023/05/09 01:06:25;;;;;;;9.77;8.77;;;22.70;64.80;;;;;;5070220;28;20201;-44
2023/05/09 01:09:09;;;;;;;8.70;7.90;;;22.70;64.80;;;;;;5050596;28;20217;-44
2023/05/09 01:12:14;;;;;;;9.20;8.20;;;22.70;64.80;;;;;;5065730;28;20221;-45
2023/05/09 01:15:07;;;;;;;9.53;8.53;;;22.70;64.80;;;;;;5067081;28;20186;-45
2023/05/09 01:18:14;;;;;;;8.40;7.50;;;22.70;64.80;;;;;;5070097;28;20626;-45
2023/05/09 01:21:14;;;;;;;9.43;8.50;;;22.70;64.90;;;;;;5022290;28;20326;-45
2023/05/09 01:24:25;;;;;;;9.00;8.13;;;22.60;64.80;;;;;;5030158;28;20216;-45
2023/05/09 01:27:44;;;;;;;9.10;8.20;;;22.70;64.90;;;;;;5047561;28;20219;-44
2023/05/09 01:30:17;;;;;;;9.10;8.20;;;22.60;64.80;;;;;;5018888;28;20270;-44
2023/05/09 01:32:52;;;;;;;8.70;7.80;;;22.60;64.80;;;;;;5047185;28;20217;-44
2023/05/09 01:35:40;;;;;;;8.33;7.53;;;22.60;64.80;;;;;;5065735;28;20234;-44
2023/05/09 01:38:22;;;;;;;8.00;7.20;;;22.60;64.80;;;;;;5051675;28;20202;-45
2023/05/09 01:41:08;;;;;;;8.87;7.97;;;22.60;64.80;;;;;;5064954;28;20217;-44
2023/05/09 01:43:39;;;;;;;7.40;6.70;;;22.60;64.70;;;;;;5070146;28;20217;-44
2023/05/09 01:46:16;;;;;;;9.00;8.10;;;22.60;64.70;;;;;;5052298;28;20203;-45
2023/05/09 01:48:48;;;;;;;8.37;7.57;;;22.60;64.70;;;;;;5076620;28;20277;-44
2023/05/09 01:51:19;;;;;;;8.17;7.37;;;22.60;64.70;;;;;;5077085;28;20186;-44
2023/05/09 01:54:08;;;;;;;8.10;7.30;;;22.60;65.30;;;;;;5061094;28;20189;-44
2023/05/09 01:56:47;;;;;;;8.67;7.67;;;22.60;64.70;;;;;;5074853;28;20193;-44
2023/05/09 01:59:16;;;;;;;8.10;7.30;;;22.60;64.60;;;;;;5071530;28;20235;-44
2023/05/09 02:01:47;;;;;;;7.90;7.10;;;22.60;64.60;;;;;;5052952;28;20239;-44
2023/05/09 02:04:20;;;;;;;8.30;7.50;;;22.60;64.60;;;;;;5069578;28;20189;-44
2023/05/09 02:06:52;;;;;;;7.23;6.53;;;22.60;64.60;;;;;;5053792;28;20524;-45
2023/05/09 02:09:22;;;;;;;7.57;6.83;;;22.60;64.60;;;;;;5082109;28;20282;-44
2023/05/09 02:11:50;;;;;;;7.60;6.87;;;22.60;64.60;;;;;;5071091;28;20247;-44
2023/05/09 02:14:18;;;;;;;8.23;7.23;;;22.60;64.60;;;;;;5070435;28;20209;-45
2023/05/09 02:17:08;;;;;;;8.23;6.93;;;22.50;64.60;;;;;;5071948;28;20717;-45
2023/05/09 02:19:44;;;;;;;9.23;7.13;;;22.50;64.60;;;;;;5068005;28;20197;-44
2023/05/09 02:22:16;;;;;;;8.27;7.47;;;22.50;64.60;;;;;;5056765;28;20221;-45
2023/05/09 02:24:45;;;;;;;8.63;7.17;;;22.60;64.60;;;;;;5082776;28;20200;-45
2023/05/09 02:27:17;;;;;;;7.53;6.80;;;22.50;64.50;;;;;;5078510;28;20221;-45
2023/05/09 02:29:57;;;;;;;7.77;6.97;;;22.50;64.40;;;;;;5046664;28;20194;-44
2023/05/09 02:32:39;;;;;;;7.53;6.73;;;22.50;64.50;;;;;;5077565;28;20182;-45
2023/05/09 02:35:15;;;;;;;7.83;6.73;;;22.50;64.50;;;;;;5053291;28;20212;-44
2023/05/09 02:37:47;;;;;;;7.33;6.63;;;22.50;64.50;;;;;;5065263;28;20656;-45
2023/05/09 02:40:21;;;;;;;8.63;6.90;;;22.50;64.50;;;;;;5052131;28;20201;-44
2023/05/09 02:42:52;;;;;;;7.60;6.80;;;22.50;64.50;;;;;;5083185;28;20194;-45
2023/05/09 02:45:22;;;;;;;7.93;7.13;;;22.50;64.50;;;;;;5080652;28;20197;-44
2023/05/09 02:47:50;;;;;;;7.40;6.63;;;22.40;64.50;;;;;;5081061;28;20228;-44
2023/05/09 02:50:21;;;;;;;7.10;6.50;;;22.50;64.40;;;;;;5072355;28;20198;-44
2023/05/09 02:52:52;;;;;;;7.53;6.83;;;22.40;64.30;;;;;;5076579;28;20200;-45
2023/05/09 02:55:22;;;;;;;7.70;7.00;;;22.50;64.40;;;;;;5087905;28;20645;-44
2023/05/09 02:57:53;;;;;;;8.00;6.60;;;22.40;64.40;;;;;;5040576;28;20234;-44
2023/05/09 03:00:38;;;;;;;8.13;6.70;;;22.40;64.40;;;;;;5062860;28;20205;-45
2023/05/09 03:03:11;;;;;;;7.93;7.13;;;22.40;64.40;;;;;;5069051;28;20198;-44
2023/05/09 03:05:40;;;;;;;7.33;6.63;;;22.40;64.40;;;;;;5063449;28;20205;-44
2023/05/09 03:08:11;;;;;;;7.30;6.60;;;22.40;64.40;;;;;;5049397;28;20218;-44
2023/05/09 03:10:39;;;;;;;7.53;6.23;;;22.40;64.30;;;;;;5059372;28;20228;-45
2023/05/09 03:13:11;;;;;;;7.77;6.97;;;22.40;64.30;;;;;;5067398;28;20209;-45
2023/05/09 03:15:48;;;;;;;7.20;6.50;;;22.40;64.30;;;;;;5052576;28;20193;-44
2023/05/09 03:18:17;;;;;;;7.23;6.53;;;22.40;64.30;;;;;;5053743;28;20205;-44
2023/05/09 03:20:47;;;;;;;7.80;7.00;;;22.40;64.30;;;;;;5054619;28;20635;-44
2023/05/09 03:23:18;;;;;;;8.20;6.67;;;22.40;64.30;;;;;;5051569;28;20210;-45
2023/05/09 03:25:48;;;;;;;8.07;7.27;;;22.30;64.30;;;;;;5048712;28;20194;-44
2023/05/09 03:28:16;;;;;;;7.97;6.50;;;22.40;64.40;;;;;;5039076;28;20283;-45
2023/05/09 03:30:47;;;;;;;7.17;6.47;;;22.30;64.30;;;;;;5059086;28;20182;-44
2023/05/09 03:33:19;;;;;;;7.83;6.87;;;22.30;64.30;;;;;;5050739;28;20206;-44
2023/05/09 03:35:50;;;;;;;6.73;6.13;;;22.30;64.40;;;;;;5052680;28;20210;-44
2023/05/09 03:38:22;;;;;;;7.33;6.63;;;22.30;64.40;;;;;;5054537;28;20205;-44
2023/05/09 03:40:57;;;;;;;7.00;6.07;;;22.30;64.40;;;;;;5058080;28;20202;-44
2023/05/09 03:43:28;;;;;;;6.40;5.80;;;22.30;64.40;;;;;;5066121;28;20196;-44
2023/05/09 03:45:57;;;;;;;7.03;6.33;;;22.30;64.40;;;;;;5045492;28;20608;-45
2023/05/09 03:48:28;;;;;;;7.87;7.07;;;22.30;64.40;;;;;;5061709;28;20213;-45
2023/05/09 03:51:00;;;;;;;7.67;5.97;;;22.30;64.40;;;;;;5058709;28;20710;-44
2023/05/09 03:53:31;;;;;;;6.37;5.77;;;22.30;64.40;;;;;;5049180;28;20198;-45
2023/05/09 03:56:00;;;;;;;7.43;5.90;;;22.30;64.40;;;;;;5046937;28;20636;-43
2023/05/09 03:58:38;;;;;;;6.83;6.20;;;22.30;64.40;;;;;;5026937;28;20221;-45
2023/05/09 04:01:12;;;;;;;6.60;6.00;;;22.30;64.40;;;;;;5064199;28;20241;-43
2023/05/09 04:03:44;;;;;;;7.53;6.43;;;22.30;64.30;;;;;;5053411;28;20228;-43
2023/05/09 04:06:14;;;;;;;7.40;6.70;;;22.20;64.40;;;;;;5073047;28;20526;-43
2023/05/09 04:08:43;;;;;;;6.67;6.07;;;22.20;64.40;;;;;;5048747;28;20376;-43
2023/05/09 04:11:15;;;;;;;6.17;5.57;;;22.20;64.40;;;;;;5059411;28;20209;-43
2023/05/09 04:13:43;;;;;;;7.13;5.87;;;22.20;64.40;;;;;;5068924;28;20688;-44
2023/05/09 04:16:14;;;;;;;6.40;5.80;;;22.20;64.40;;;;;;5058178;28;20185;-45
2023/05/09 04:18:42;;;;;;;6.50;5.80;;;22.20;64.40;;;;;;5067991;28;20255;-43
2023/05/09 04:21:13;;;;;;;5.90;5.40;;;22.20;64.30;;;;;;5051069;28;20709;-43
2023/05/09 04:23:45;;;;;;;6.67;6.07;;;22.20;64.40;;;;;;5052221;28;20225;-45
2023/05/09 04:26:17;;;;;;;6.47;5.80;;;22.20;64.30;;;;;;5062482;28;20201;-43
2023/05/09 04:28:49;;;;;;;6.37;5.77;;;22.20;64.30;;;;;;5067986;28;20290;-44
2023/05/09 04:31:21;;;;;;;7.03;5.77;;;22.20;64.40;;;;;;5068030;28;20208;-43
2023/05/09 04:33:51;;;;;;;6.57;5.60;;;22.20;64.30;;;;;;5071352;28;20201;-44
2023/05/09 04:36:19;;;;;;;6.67;5.90;;;22.20;64.40;;;;;;5068967;28;20190;-45
2023/05/09 04:38:50;;;;;;;6.83;5.87;;;22.20;64.30;;;;;;5073031;28;20200;-45
2023/05/09 04:41:21;;;;;;;5.63;5.10;;;22.20;64.30;;;;;;5072782;28;20200;-45
2023/05/09 04:43:51;;;;;;;6.47;5.77;;;22.20;64.30;;;;;;5072552;28;20194;-45
2023/05/09 04:46:23;;;;;;;6.23;5.50;;;22.20;64.20;;;;;;5051536;28;20206;-44
2023/05/09 04:48:55;;;;;;;5.80;5.30;;;22.20;64.30;;;;;;5071814;28;20233;-45
2023/05/09 04:51:24;;;;;;;5.97;5.37;;;22.20;64.20;;;;;;5072388;28;20197;-45
2023/05/09 04:53:56;;;;;;;6.20;5.60;;;22.20;64.20;;;;;;5068070;28;20193;-44
2023/05/09 04:56:26;;;;;;;5.97;5.27;;;22.20;64.20;;;;;;5060255;28;20259;-43
2023/05/09 04:58:56;;;;;;;6.17;4.90;;;22.20;64.20;;;;;;5071979;28;20229;-45
2023/05/09 05:01:25;;;;;;;5.80;5.27;;;22.20;64.20;;;;;;5064984;28;20194;-46
2023/05/09 05:03:55;;;;;;;7.97;5.80;;;22.20;64.10;;;;;;5073609;28;20185;-45
2023/05/09 05:06:27;;;;;;;5.70;5.20;;;22.20;64.10;;;;;;5088552;28;20244;-44
2023/05/09 05:08:59;;;;;;;6.40;5.67;;;22.20;64.10;;;;;;5076670;28;20647;-44
2023/05/09 05:11:41;;;;;;;6.13;5.37;;;22.20;64.10;;;;;;5068215;28;20209;-44
2023/05/09 05:14:27;;;;;;;5.80;5.20;;;22.20;64.10;;;;;;5072304;28;20635;-44
2023/05/09 05:16:57;;;;;;;6.20;5.30;;;22.20;64.10;;;;;;5072761;28;20653;-44
2023/05/09 05:19:29;;;;;;;6.17;5.60;;;22.20;64.10;;;;;;5072007;28;20491;-44
2023/05/09 05:22:00;;;;;;;6.03;5.43;;;22.20;64.10;;;;;;5078779;28;20213;-44
2023/05/09 05:24:30;;;;;;;5.20;4.70;;;22.20;64.00;;;;;;5080331;28;20278;-44
2023/05/09 05:26:58;;;;;;;6.17;5.40;;;22.20;64.00;;;;;;5057043;28;20705;-43
2023/05/09 05:29:40;;;;;;;5.77;5.27;;;22.20;63.90;;;;;;5073282;28;20251;-43
2023/05/09 05:32:14;;;;;;;5.10;4.60;;;22.10;63.90;;;;;;5060366;28;20289;-43
2023/05/09 05:34:43;;;;;;;5.80;5.30;;;22.20;64.10;;;;;;5053928;28;20206;-44
2023/05/09 05:37:14;;;;;;;6.73;5.03;;;22.20;64.10;;;;;;5077008;28;20205;-43
2023/05/09 05:39:42;;;;;;;6.23;5.20;;;22.20;64.10;;;;;;5073291;28;20636;-43
2023/05/09 05:42:13;;;;;;;6.20;5.17;;;22.20;64.10;;;;;;5064716;28;20198;-44
2023/05/09 05:44:47;;;;;;;6.20;5.37;;;22.10;64.00;;;;;;5076229;28;20198;-43
2023/05/09 05:47:16;;;;;;;6.47;4.90;;;22.20;64.10;;;;;;5084023;28;20242;-43
2023/05/09 05:49:47;;;;;;;5.30;4.80;;;22.20;64.10;;;;;;5076390;28;20263;-45
2023/05/09 05:52:14;;;;;;;6.10;5.50;;;22.10;64.70;;;;;;5070565;28;20526;-45
2023/05/09 05:54:41;;;;;;;5.37;4.77;;;22.10;64.00;;;;;;5071983;28;20900;-45
2023/05/09 05:57:14;;;;;;;5.63;4.73;;;22.10;64.00;;;;;;5068310;28;20619;-44
2023/05/09 05:59:45;;;;;;;5.40;4.90;;;22.20;64.10;;;;;;5065554;28;20206;-44
2023/05/09 06:02:16;;;;;;;6.53;5.37;;;22.20;64.70;;;;;;5060008;28;20213;-44
2023/05/09 06:04:46;;;;;;;7.10;5.40;;;22.10;64.00;;;;;;5049307;28;20190;-44
2023/05/09 06:07:17;;;;;;;7.17;5.70;;;22.10;64.00;;;;;;5085456;28;20651;-44
2023/05/09 06:09:50;;;;;;;5.33;4.80;;;22.10;64.00;;;;;;5069380;28;20236;-44
2023/05/09 06:12:18;;;;;;;5.87;5.27;;;22.20;64.00;;;;;;5052936;28;20205;-45
2023/05/09 06:14:54;;;;;;;7.20;5.73;;;22.20;64.00;;;;;;5082722;28;20193;-44
2023/05/09 06:17:26;;;;;;;6.07;5.20;;;22.10;64.00;;;;;;5072440;28;20195;-44
2023/05/09 06:20:02;;;;;;;7.43;6.03;;;22.20;64.00;;;;;;5053034;28;20418;-44
2023/05/09 06:22:33;;;;;;;6.73;6.03;;;22.10;63.90;;;;;;5058733;28;20620;-45
2023/05/09 06:25:03;;;;;;;6.70;6.00;;;22.20;63.90;;;;;;5068034;28;20611;-44
2023/05/09 06:27:38;;;;;;;6.87;6.17;;;22.20;64.00;;;;;;5066551;28;20201;-45
2023/05/09 06:30:14;;;;;;;8.00;6.67;;;22.10;63.90;;;;;;5067596;28;20201;-45
2023/05/09 06:32:57;;;;;;;7.00;6.30;;;22.10;63.90;;;;;;5057089;28;20295;-44
2023/05/09 06:35:27;;;;;;;20.37;11.13;;;22.20;64.10;;;;;;5066333;28;20609;-44
2023/05/09 06:37:58;;;;;;;20.27;12.07;;;22.20;63.90;;;;;;5081979;28;20205;-44
2023/05/09 06:40:34;;;;;;;16.27;12.07;;;22.20;63.00;;;;;;5059541;28;20657;-44
2023/05/09 06:43:06;;;;;;;15.67;12.20;;;22.30;62.50;;;;;;5075513;28;20193;-43
2023/05/09 06:45:37;;;;;;;16.63;12.50;;;22.30;62.10;;;;;;5062437;28;20211;-43
2023/05/09 06:48:09;;;;;;;16.53;12.67;;;22.30;61.80;;;;;;5072687;28;20270;-44
2023/05/09 06:50:51;;;;;;;17.07;12.17;;;22.30;61.60;;;;;;5084175;28;20615;-44
2023/05/09 06:53:22;;;;;;;14.50;11.97;;;22.30;61.40;;;;;;5079435;28;20603;-44
2023/05/09 06:55:51;;;;;;;12.77;11.40;;;22.30;61.20;;;;;;5085319;28;20189;-44
2023/05/09 06:58:30;;;;;;;15.40;11.13;;;22.30;61.70;;;;;;5080919;28;20608;-44
2023/05/09 07:01:09;;;;;;;13.17;9.93;;;22.40;61.70;;;;;;5072914;28;20197;-44
2023/05/09 07:03:39;;;;;;;12.67;9.93;;;22.40;62.50;;;;;;5080195;28;20217;-44
2023/05/09 07:06:31;;;;;;;11.70;9.27;;;22.50;62.00;;;;;;5056414;28;20224;-44
2023/05/09 07:09:00;;;;;;;11.87;8.90;;;22.60;62.10;;;;;;5055407;28;20233;-44
2023/05/09 07:11:37;;;;;;;9.50;8.10;;;22.70;62.00;;;;;;5068929;28;20205;-44
2023/05/09 07:14:07;;;;;;;9.57;8.10;;;22.80;61.70;;;;;;5072117;28;20197;-44
2023/05/09 07:16:39;;;;;;;9.33;7.83;;;22.90;61.50;;;;;;5070125;28;20202;-44
2023/05/09 07:19:11;;;;;;;9.10;7.43;;;23.00;61.10;;;;;;5066314;28;20753;-44
2023/05/09 07:21:41;;;;;;;8.97;7.50;;;23.10;60.90;;;;;;5071223;28;20193;-44
2023/05/09 07:24:09;;;;;;;8.70;7.33;;;23.20;60.60;;;;;;5044017;28;20206;-44
2023/05/09 07:26:38;;;;;;;10.17;7.47;;;23.20;60.20;;;;;;5042804;28;20209;-44
2023/05/09 07:29:08;;;;;;;8.37;7.30;;;23.30;60.10;;;;;;5071010;28;20546;-44
2023/05/09 07:31:38;;;;;;;10.50;7.27;;;23.40;59.90;;;;;;5068210;28;20601;-44
2023/05/09 07:34:09;;;;;;;9.57;6.87;;;23.40;59.60;;;;;;5061785;28;20213;-44
2023/05/09 07:36:39;;;;;;;6.87;6.17;;;23.40;59.60;;;;;;5049953;28;20201;-44
2023/05/09 07:39:10;;;;;;;9.70;6.70;;;23.50;59.60;;;;;;5061821;28;20198;-44
2023/05/09 07:41:42;;;;;;;9.17;6.10;;;23.60;59.60;;;;;;5067781;28;20189;-44
2023/05/09 07:44:12;;;;;;;9.73;6.20;;;23.70;59.50;;;;;;5062602;28;20210;-44
2023/05/09 07:46:43;;;;;;;7.37;6.57;;;23.70;59.10;;;;;;5069772;28;20220;-44
2023/05/09 07:49:16;;;;;;;8.17;6.13;;;23.70;58.90;;;;;;5079301;28;20704;-44
2023/05/09 07:51:49;;;;;;;6.13;5.53;;;23.80;58.70;;;;;;5079777;28;20222;-44
2023/05/09 07:54:19;;;;;;;9.40;5.73;;;23.80;59.20;;;;;;5076435;28;20658;-46
2023/05/09 07:56:50;;;;;;;10.60;5.60;;;23.80;58.20;;;;;;5069789;28;20193;-45
2023/05/09 07:59:20;;;;;;;7.13;6.20;;;23.70;58.10;;;;;;5078226;28;20267;-44
2023/05/09 08:01:53;;;;;;;8.77;5.93;;;23.60;58.10;;;;;;5064319;28;20202;-45
2023/05/09 08:04:26;;;;;;;8.83;6.47;;;23.60;58.40;;;;;;5065234;28;20197;-44
2023/05/09 08:06:58;;;;;;;10.97;6.27;;;23.50;58.50;;;;;;5076363;28;20205;-44
2023/05/09 08:09:30;;;;;;;10.03;6.37;;;23.50;58.60;;;;;;5057335;28;20209;-44
2023/05/09 08:12:03;;;;;;;8.17;5.67;;;23.40;58.70;;;;;;5062452;28;20209;-44
2023/05/09 08:14:32;;;;;;;7.37;5.80;;;23.40;58.80;;;;;;5066898;28;20657;-44
2023/05/09 08:17:02;;;;;;;8.10;5.70;;;23.40;58.70;;;;;;5058090;28;20216;-44
2023/05/09 08:19:33;;;;;;;7.97;5.73;;;23.40;58.60;;;;;;5058702;28;20438;-44
2023/05/09 08:22:06;;;;;;;7.20;5.23;;;23.40;58.50;;;;;;5054894;28;20210;-44
2023/05/09 08:24:36;;;;;;;7.93;5.10;;;23.30;58.50;;;;;;5058169;28;20201;-45
2023/05/09 08:27:08;;;;;;;6.10;5.50;;;23.30;58.50;;;;;;5068419;28;20279;-45
2023/05/09 08:29:43;;;;;;;5.53;5.00;;;23.30;58.50;;;;;;5067704;28;20297;-44
2023/05/09 08:32:14;;;;;;;7.07;4.83;;;23.30;58.40;;;;;;5069844;28;20207;-43
2023/05/09 08:34:45;;;;;;;5.40;4.90;;;23.20;58.30;;;;;;5074391;28;20217;-44
2023/05/09 08:37:15;;;;;;;5.80;4.60;;;23.20;58.30;;;;;;5071042;28;20221;-43
2023/05/09 08:39:52;;;;;;;6.43;4.70;;;23.30;58.30;;;;;;5066963;28;20630;-44
2023/05/09 08:42:22;;;;;;;5.67;4.40;;;23.20;58.10;;;;;;5073955;28;20250;-44
2023/05/09 08:44:54;;;;;;;7.97;4.70;;;23.20;58.60;;;;;;5053599;28;20198;-44
2023/05/09 08:47:24;;;;;;;5.57;5.07;;;23.20;58.50;;;;;;5068315;28;20205;-43
2023/05/09 08:50:03;;;;;;;7.67;4.10;;;23.20;58.40;;;;;;5044116;28;20226;-44
2023/05/09 08:52:34;;;;;;;6.67;4.07;;;23.10;59.50;;;;;;5068930;28;20225;-44
2023/05/09 08:55:06;;;;;;;10.20;4.07;;;23.20;59.90;;;;;;5075720;28;20196;-44
2023/05/09 08:57:39;;;;;;;7.60;3.63;;;23.20;59.60;;;;;;5071422;28;20309;-44
2023/05/09 09:00:19;;;;;;;5.07;3.83;;;23.30;58.90;;;;;;5068183;28;20240;-44
2023/05/09 09:02:48;;;;;;;8.60;4.07;;;23.30;58.80;;;;;;5070907;28;20189;-44
2023/05/09 09:05:15;;;;;;;7.73;4.00;;;23.30;58.80;;;;;;5065623;28;21603;-43
2023/05/09 09:08:09;;;;;;;5.80;3.50;;;23.30;59.10;;;;;;5072913;28;20197;-44
2023/05/09 09:10:46;;;;;;;6.43;3.73;;;23.40;58.80;;;;;;5061767;28;20241;-44
2023/05/09 09:13:29;;;;;;;5.57;3.67;;;23.50;58.30;;;;;;5047439;28;20202;-45
2023/05/09 09:16:05;;;;;;;6.93;3.30;;;23.50;58.10;;;;;;5065444;28;20582;-44
2023/05/09 09:18:35;;;;;;;4.13;3.53;;;23.60;58.10;;;;;;5065365;28;20205;-44
2023/05/09 09:21:10;;;;;;;4.57;3.30;;;23.60;58.00;;;;;;5073829;28;20212;-44
2023/05/09 09:23:43;;;;;;;7.87;3.60;;;23.70;57.70;;;;;;5083470;28;20585;-44
2023/05/09 09:26:15;;;;;;;5.90;3.23;;;23.70;57.40;;;;;;5054113;28;20210;-44
2023/05/09 09:28:47;;;;;;;5.13;3.37;;;23.70;57.20;;;;;;5063728;28;20205;-44
2023/05/09 09:31:31;;;;;;;4.47;3.20;;;23.80;57.10;;;;;;5074850;28;20201;-44
2023/05/09 09:34:09;;;;;;;4.17;3.00;;;23.80;57.10;;;;;;5073510;28;20694;-44
2023/05/09 09:36:41;;;;;;;5.63;3.47;;;23.90;57.60;;;;;;5073938;28;20208;-44
2023/05/09 09:39:13;;;;;;;5.43;3.67;;;23.90;56.70;;;;;;5077842;28;20239;-44
2023/05/09 09:41:45;;;;;;;4.50;3.37;;;24.00;57.00;;;;;;5076310;28;20685;-44
2023/05/09 09:44:18;;;;;;;6.23;3.10;;;24.00;56.70;;;;;;5068451;28;20206;-44
2023/05/09 09:46:54;;;;;;;3.30;3.00;;;24.00;56.80;;;;;;5066397;28;20291;-43
2023/05/09 09:49:33;;;;;;;4.47;3.30;;;23.90;57.20;;;;;;5073745;28;20324;-44
2023/05/09 09:52:04;;;;;;;4.73;2.77;;;23.90;57.00;;;;;;5077200;28;20241;-44
2023/05/09 09:54:37;;;;;;;3.77;3.07;;;23.80;56.80;;;;;;5074968;28;20194;-44
2023/05/09 09:57:08;;;;;;;3.67;2.83;;;23.80;56.90;;;;;;5076008;28;20232;-44
2023/05/09 09:59:58;;;;;;;4.50;3.13;;;23.70;57.70;;;;;;5046674;28;20206;-44
2023/05/09 10:02:28;;;;;;;3.47;2.57;;;23.80;58.30;;;;;;5050999;28;20194;-45
2023/05/09 10:05:08;;;;;;;3.73;2.40;;;23.70;58.50;;;;;;5037848;28;20240;-44
2023/05/09 10:07:39;;;;;;;3.53;2.47;;;23.70;58.50;;;;;;5047197;28;20700;-44
2023/05/09 10:10:10;;;;;;;3.70;2.50;;;23.80;58.80;;;;;;5052707;28;20809;-44
2023/05/09 10:12:39;;;;;;;2.83;2.27;;;23.70;59.00;;;;;;5047400;28;20198;-44
2023/05/09 10:15:11;;;;;;;2.67;2.20;;;23.70;59.00;;;;;;5036806;28;20186;-43
2023/05/09 10:17:40;;;;;;;3.37;2.50;;;23.60;58.80;;;;;;5029863;28;20195;-44
2023/05/09 10:20:12;;;;;;;2.30;2.10;;;23.60;59.00;;;;;;5033786;28;20210;-44
2023/05/09 10:22:48;;;;;;;4.03;2.60;;;23.60;59.00;;;;;;5053691;28;20770;-44
2023/05/09 10:25:22;;;;;;;3.50;2.80;;;23.60;59.20;;;;;;5046318;28;20202;-43
2023/05/09 10:28:00;;;;;;;2.63;2.33;;;23.50;59.00;;;;;;5032365;28;20206;-44
2023/05/09 10:30:51;;;;;;;3.77;2.20;;;23.50;59.00;;;;;;5053680;28;20340;-44
2023/05/09 10:33:27;;;;;;;2.10;1.90;;;23.40;59.00;;;;;;5038573;28;20237;-43
2023/05/09 10:36:02;;;;;;;4.80;2.07;;;23.40;59.20;;;;;;5026192;28;20185;-44
2023/05/09 10:38:33;;;;;;;3.27;1.97;;;23.40;59.10;;;;;;5036918;28;20202;-44
2023/05/09 10:41:04;;;;;;;2.17;1.70;;;23.40;59.10;;;;;;5062994;28;20206;-43
2023/05/09 10:43:39;;;;;;;2.60;1.73;;;23.40;59.10;;;;;;5043724;28;20221;-44
2023/05/09 10:46:12;;;;;;;2.50;1.90;;;23.30;59.10;;;;;;5029443;28;20584;-43
2023/05/09 10:48:47;;;;;;;3.40;1.70;;;23.30;59.00;;;;;;5050167;28;20236;-43
2023/05/09 10:51:16;;;;;;;2.57;1.60;;;23.30;59.10;;;;;;5041044;28;20217;-43
2023/05/09 10:53:49;;;;;;;2.33;2.00;;;23.40;59.50;;;;;;5036552;28;20337;-43
2023/05/09 10:56:34;;;;;;;1.97;1.60;;;23.30;59.60;;;;;;5030009;28;20209;-44
2023/05/09 10:59:02;;;;;;;2.20;1.63;;;23.30;59.50;;;;;;5034702;28;20778;-44
2023/05/09 11:01:38;;;;;;;2.07;1.60;;;23.30;59.70;;;;;;5048518;28;20224;-44
2023/05/09 11:04:21;;;;;;;1.87;1.70;;;23.30;59.80;;;;;;5033809;28;20626;-44
2023/05/09 11:06:53;;;;;;;2.70;1.60;;;23.30;60.20;;;;;;5056148;28;20824;-44
2023/05/09 11:09:34;;;;;;;3.83;1.73;;;23.40;60.40;;;;;;5029415;28;20628;-44
2023/05/09 11:12:09;;;;;;;2.03;1.60;;;23.50;61.00;;;;;;5046696;28;20194;-44
2023/05/09 11:14:46;;;;;;;2.73;1.70;;;23.60;60.20;;;;;;5050799;28;20202;-44
2023/05/09 11:17:31;;;;;;;3.53;1.47;;;23.60;60.20;;;;;;5032880;28;20275;-44
2023/05/09 11:20:10;;;;;;;2.07;1.60;;;23.70;60.30;;;;;;5050358;28;20202;-45
2023/05/09 11:22:43;;;;;;;1.60;1.50;;;23.70;60.10;;;;;;5057317;28;20205;-44
2023/05/09 11:25:15;;;;;;;4.00;1.40;;;23.70;59.90;;;;;;5056238;28;20631;-44
2023/05/09 11:27:51;;;;;;;2.53;1.57;;;23.80;60.00;;;;;;5037205;28;20202;-45
2023/05/09 11:30:42;;;;;;;1.80;1.50;;;23.80;59.60;;;;;;5046965;28;20209;-44
2023/05/09 11:33:27;;;;;;;2.40;1.77;;;23.90;60.10;;;;;;5033138;28;20789;-44
2023/05/09 11:36:32;;;;;;;1.90;1.60;;;23.90;59.40;;;;;;5033685;28;20212;-44
2023/05/09 11:39:09;;;;;;;1.70;1.60;;;23.90;59.40;;;;;;5040693;28;20213;-44
2023/05/09 11:41:46;;;;;;;2.23;1.87;;;23.90;59.50;;;;;;5029268;28;20623;-44
2023/05/09 11:44:20;;;;;;;2.13;1.57;;;24.00;59.60;;;;;;5050472;28;20206;-44
2023/05/09 11:46:49;;;;;;;3.20;1.50;;;24.00;59.50;;;;;;5030993;28;20202;-44
2023/05/09 11:49:19;;;;;;;1.90;1.70;;;24.00;59.60;;;;;;5048645;28;20210;-44
2023/05/09 11:51:52;;;;;;;1.80;1.67;;;24.00;59.40;;;;;;5050989;28;20198;-44
2023/05/09 11:54:24;;;;;;;3.73;1.97;;;24.00;59.50;;;;;;5048974;28;20758;-44
2023/05/09 11:56:53;;;;;;;2.73;1.93;;;24.10;59.60;;;;;;5050051;28;20901;-44
2023/05/09 11:59:23;;;;;;;2.27;1.80;;;24.10;59.40;;;;;;5037115;28;20230;-44
2023/05/09 12:02:04;;;;;;;4.37;2.00;;;24.10;59.50;;;;;;5038146;28;20230;-44
2023/05/09 12:04:42;;;;;;;2.50;1.90;;;24.10;59.60;;;;;;5050755;28;20197;-44
2023/05/09 12:07:18;;;;;;;2.00;1.80;;;24.10;59.50;;;;;;5035276;28;20195;-44
2023/05/09 12:09:51;;;;;;;1.73;1.63;;;24.20;59.60;;;;;;5040940;28;20209;-44
2023/05/09 12:12:21;;;;;;;1.80;1.60;;;24.20;59.50;;;;;;5048950;28;20558;-44
2023/05/09 12:14:54;;;;;;;1.93;1.83;;;24.20;59.20;;;;;;5054356;28;20194;-44
2023/05/09 12:17:26;;;;;;;3.37;1.80;;;24.20;59.10;;;;;;5047762;28;20182;-44
2023/05/09 12:20:03;;;;;;;2.13;1.90;;;24.20;59.10;;;;;;5049967;28;20198;-44
2023/05/09 12:22:34;;;;;;;2.23;2.00;;;24.20;59.20;;;;;;5045718;28;20280;-44
2023/05/09 12:25:08;;;;;;;2.70;1.80;;;24.20;58.90;;;;;;5039873;28;20222;-43
2023/05/09 12:27:53;;;;;;;4.90;2.60;;;24.20;58.80;;;;;;5025874;28;20206;-44
2023/05/09 12:30:24;;;;;;;3.77;1.93;;;24.20;58.60;;;;;;5045397;28;20254;-44
2023/05/09 12:32:59;;;;;;;2.03;1.70;;;24.20;59.40;;;;;;5024472;28;20627;-44
2023/05/09 12:35:34;;;;;;;1.90;1.70;;;24.20;58.90;;;;;;5048345;28;20194;-44
2023/05/09 12:38:07;;;;;;;3.47;1.90;;;24.20;58.70;;;;;;5044011;28;20640;-44
2023/05/09 12:40:40;;;;;;;2.17;1.83;;;24.20;58.80;;;;;;5028018;28;20209;-44
2023/05/09 12:43:12;;;;;;;3.17;1.70;;;24.20;59.10;;;;;;5049285;28;20620;-44
2023/05/09 12:45:45;;;;;;;3.83;2.10;;;24.20;58.90;;;;;;5025871;28;20195;-44
2023/05/09 12:48:15;;;;;;;1.87;1.57;;;24.20;58.90;;;;;;5041831;28;20229;-44
2023/05/09 12:50:46;;;;;;;2.57;1.60;;;24.20;58.70;;;;;;5048650;28;20839;-44
2023/05/09 12:53:25;;;;;;;2.77;1.67;;;24.20;58.50;;;;;;5031642;28;20198;-44
2023/05/09 12:56:22;;;;;;;3.23;1.77;;;24.20;58.50;;;;;;5036015;28;20651;-44
2023/05/09 12:58:53;;;;;;;3.67;1.53;;;24.10;58.30;;;;;;5039487;28;20558;-43
2023/05/09 13:01:35;;;;;;;2.70;1.80;;;24.00;57.90;;;;;;5018987;28;20285;-43
2023/05/09 13:04:06;;;;;;;3.27;1.40;;;23.80;58.30;;;;;;5013649;28;20217;-43
2023/05/09 13:06:59;;;;;;;3.20;1.37;;;23.70;58.30;;;;;;5031691;28;20210;-44
2023/05/09 13:09:28;;;;;;;2.67;1.77;;;23.70;58.90;;;;;;5042668;28;20256;-44
2023/05/09 13:12:02;;;;;;;3.63;1.70;;;23.70;59.20;;;;;;5042555;28;20611;-44
2023/05/09 13:14:34;;;;;;;3.07;1.60;;;23.60;58.80;;;;;;5026523;28;20287;-44
2023/05/09 13:17:06;;;;;;;4.20;1.50;;;23.50;58.70;;;;;;5046628;28;20759;-44
2023/05/09 13:19:38;;;;;;;1.70;1.60;;;23.50;58.80;;;;;;5047940;28;20229;-44
2023/05/09 13:22:11;;;;;;;2.57;1.40;;;23.30;58.90;;;;;;5047295;28;20290;-44